createdAt,value
2017-05-14T00:00:28.959Z,37.28
2017-05-14T00:01:09.528Z,37.78
2017-05-14T00:01:50.110Z,37.49
2017-05-14T00:02:30.678Z,37.4
2017-05-14T00:03:11.269Z,37.4
2017-05-14T00:03:51.856Z,37.3
2017-05-14T00:04:32.431Z,37.02
2017-05-14T00:05:12.998Z,36.92
2017-05-14T00:05:53.575Z,37.11
2017-05-14T00:06:34.159Z,37.21
2017-05-14T00:07:14.735Z,36.82
2017-05-14T00:07:55.306Z,36.73
2017-05-14T00:08:35.875Z,36.63
2017-05-14T00:09:16.451Z,36.82
2017-05-14T00:09:57.027Z,36.73
2017-05-14T00:10:37.594Z,36.82
2017-05-14T00:11:18.170Z,36.73
2017-05-14T00:11:58.754Z,36.54
2017-05-14T00:12:39.325Z,36.63
2017-05-14T00:13:19.899Z,36.63
2017-05-14T00:14:00.488Z,36.54
2017-05-14T00:14:41.050Z,36.54
2017-05-14T00:15:21.623Z,36.23
2017-05-14T00:16:02.202Z,36.15
2017-05-14T00:16:42.830Z,35.96
2017-05-14T00:17:23.363Z,36.15
2017-05-14T00:18:03.931Z,35.86
2017-05-14T00:18:44.509Z,35.77
2017-05-14T00:19:25.098Z,35.77
2017-05-14T00:20:05.666Z,35.86
2017-05-14T00:20:46.237Z,35.86
2017-05-14T00:21:26.817Z,35.96
2017-05-14T00:22:07.412Z,35.86
2017-05-14T00:22:47.999Z,35.94
2017-05-14T00:23:28.570Z,35.58
2017-05-14T00:24:09.164Z,35.68
2017-05-14T00:24:49.748Z,35.77
2017-05-14T00:25:30.332Z,35.58
2017-05-14T00:26:10.905Z,35.68
2017-05-14T00:26:51.484Z,35.37
2017-05-14T00:27:32.055Z,35.58
2017-05-14T00:28:12.633Z,35.58
2017-05-14T00:28:53.233Z,35.47
2017-05-14T00:29:33.808Z,35.37
2017-05-14T00:30:14.374Z,35.37
2017-05-14T00:30:54.941Z,35.49
2017-05-14T00:31:35.519Z,35.37
2017-05-14T00:32:16.102Z,35.08
2017-05-14T00:32:56.695Z,35.08
2017-05-14T00:33:37.268Z,34.89
2017-05-14T00:34:17.842Z,34.8
2017-05-14T00:34:58.417Z,35.18
2017-05-14T00:35:39.000Z,34.7
2017-05-14T00:36:19.571Z,35.08
2017-05-14T00:37:00.153Z,35.18
2017-05-14T00:37:40.726Z,35.18
2017-05-14T00:38:21.312Z,34.8
2017-05-14T00:39:01.893Z,34.89
2017-05-14T00:39:42.480Z,34.89
2017-05-14T00:40:23.063Z,34.89
2017-05-14T00:41:03.648Z,34.7
2017-05-14T00:41:44.234Z,34.61
2017-05-14T00:42:24.812Z,34.8
2017-05-14T00:43:05.407Z,34.99
2017-05-14T00:43:45.976Z,34.51
2017-05-14T00:44:26.552Z,34.32
2017-05-14T00:45:07.123Z,34.51
2017-05-14T00:45:47.703Z,34.61
2017-05-14T00:46:28.280Z,34.89
2017-05-14T00:47:08.846Z,34.8
2017-05-14T00:47:49.422Z,34.89
2017-05-14T00:48:29.996Z,34.61
2017-05-14T00:49:10.565Z,34.61
2017-05-14T00:49:51.136Z,34.99
2017-05-14T00:50:31.725Z,34.61
2017-05-14T00:51:12.339Z,34.99
2017-05-14T00:51:52.913Z,34.51
2017-05-14T00:52:33.479Z,34.51
2017-05-14T00:53:14.059Z,34.51
2017-05-14T00:53:54.644Z,34.51
2017-05-14T00:54:35.213Z,34.42
2017-05-14T00:55:15.803Z,34.13
2017-05-14T00:55:56.376Z,34.22
2017-05-14T00:56:36.947Z,34.32
2017-05-14T00:57:17.520Z,34.22
2017-05-14T00:57:58.092Z,34.22
2017-05-14T00:58:38.669Z,34.22
2017-05-14T00:59:19.237Z,34.32
2017-05-14T00:59:59.832Z,34.03
2017-05-14T01:00:40.416Z,34.3
2017-05-14T01:01:21.004Z,34.03
2017-05-14T01:02:01.576Z,34.03
2017-05-14T01:02:42.159Z,33.83
2017-05-14T01:03:22.750Z,34.01
2017-05-14T01:04:03.343Z,34.01
2017-05-14T01:04:43.971Z,34.22
2017-05-14T01:05:24.496Z,33.84
2017-05-14T01:06:05.064Z,34.01
2017-05-14T01:06:45.631Z,33.73
2017-05-14T01:07:26.219Z,33.83
2017-05-14T01:08:06.785Z,33.84
2017-05-14T01:08:47.366Z,33.83
2017-05-14T01:09:27.942Z,33.73
2017-05-14T01:10:08.516Z,33.64
2017-05-14T01:10:49.089Z,33.65
2017-05-14T01:11:29.660Z,33.65
2017-05-14T01:12:10.240Z,33.44
2017-05-14T01:12:50.818Z,33.44
2017-05-14T01:13:31.394Z,33.44
2017-05-14T01:14:11.985Z,33.64
2017-05-14T01:14:52.568Z,33.44
2017-05-14T01:15:33.138Z,33.54
2017-05-14T01:16:13.754Z,33.75
2017-05-14T01:16:54.323Z,33.64
2017-05-14T01:17:34.894Z,33.64
2017-05-14T01:18:15.482Z,33.73
2017-05-14T01:18:56.071Z,33.15
2017-05-14T01:19:36.646Z,33.15
2017-05-14T01:20:17.238Z,33.35
2017-05-14T01:20:57.822Z,33.25
2017-05-14T01:21:38.396Z,33.54
2017-05-14T01:22:18.967Z,33.54
2017-05-14T01:22:59.536Z,32.87
2017-05-14T01:23:40.121Z,32.97
2017-05-14T01:24:20.691Z,33.06
2017-05-14T01:25:01.262Z,32.97
2017-05-14T01:25:41.824Z,33.06
2017-05-14T01:26:22.416Z,32.97
2017-05-14T01:27:02.986Z,33.15
2017-05-14T01:27:43.577Z,33.15
2017-05-14T01:28:24.131Z,32.97
2017-05-14T01:29:04.700Z,32.87
2017-05-14T01:29:45.269Z,32.68
2017-05-14T01:30:25.865Z,32.87
2017-05-14T01:31:06.434Z,32.87
2017-05-14T01:31:47.029Z,32.97
2017-05-14T01:32:27.594Z,32.78
2017-05-14T01:33:08.189Z,32.78
2017-05-14T01:33:48.783Z,32.97
2017-05-14T01:34:29.356Z,32.58
2017-05-14T01:35:09.937Z,32.78
2017-05-14T01:35:50.527Z,32.49
2017-05-14T01:36:31.121Z,32.97
2017-05-14T01:37:11.697Z,33.25
2017-05-14T01:37:52.286Z,32.87
2017-05-14T01:38:32.876Z,32.58
2017-05-14T01:39:13.458Z,32.49
2017-05-14T01:39:54.031Z,32.39
2017-05-14T01:40:34.632Z,32.78
2017-05-14T01:41:15.216Z,32.68
2017-05-14T01:41:55.793Z,32.49
2017-05-14T01:42:36.362Z,32.49
2017-05-14T01:43:16.964Z,32.29
2017-05-14T01:43:57.544Z,32.39
2017-05-14T01:44:38.157Z,32.39
2017-05-14T01:45:18.759Z,32.39
2017-05-14T01:45:59.366Z,32.2
2017-05-14T01:46:39.953Z,32.49
2017-05-14T01:47:20.536Z,32.39
2017-05-14T01:48:01.127Z,32.39
2017-05-14T01:48:41.714Z,32.49
2017-05-14T01:49:22.340Z,32.39
2017-05-14T01:50:02.913Z,32.49
2017-05-14T01:50:43.508Z,32.49
2017-05-14T01:51:24.079Z,32.39
2017-05-14T01:52:04.658Z,32.1
2017-05-14T01:52:45.231Z,32.29
2017-05-14T01:53:25.844Z,32.49
2017-05-14T01:54:06.384Z,32.2
2017-05-14T01:54:46.977Z,32.1
2017-05-14T01:55:27.595Z,32.2
2017-05-14T01:56:08.180Z,32.2
2017-05-14T01:56:48.754Z,31.92
2017-05-14T01:57:29.345Z,31.82
2017-05-14T01:58:09.911Z,32.1
2017-05-14T01:58:50.486Z,32.01
2017-05-14T01:59:31.068Z,31.82
2017-05-14T02:00:11.647Z,31.92
2017-05-14T02:00:52.233Z,32.01
2017-05-14T02:01:32.809Z,31.92
2017-05-14T02:02:13.377Z,31.53
2017-05-14T02:02:53.956Z,31.53
2017-05-14T02:03:34.532Z,31.63
2017-05-14T02:04:15.141Z,31.53
2017-05-14T02:04:55.688Z,31.72
2017-05-14T02:05:36.264Z,31.72
2017-05-14T02:06:16.851Z,31.63
2017-05-14T02:06:57.421Z,31.63
2017-05-14T02:07:37.995Z,31.43
2017-05-14T02:08:18.567Z,31.72
2017-05-14T02:08:59.155Z,31.82
2017-05-14T02:09:39.722Z,31.63
2017-05-14T02:10:20.295Z,31.63
2017-05-14T02:11:00.871Z,31.82
2017-05-14T02:11:41.437Z,31.63
2017-05-14T02:12:22.004Z,31.53
2017-05-14T02:13:02.579Z,31.43
2017-05-14T02:13:43.169Z,31.43
2017-05-14T02:14:23.767Z,31.34
2017-05-14T02:15:04.374Z,31.53
2017-05-14T02:15:44.935Z,31.34
2017-05-14T02:16:25.527Z,31.43
2017-05-14T02:17:06.098Z,31.34
2017-05-14T02:17:46.686Z,31.53
2017-05-14T02:18:27.257Z,31.34
2017-05-14T02:19:07.829Z,31.53
2017-05-14T02:19:48.396Z,31.53
2017-05-14T02:20:28.975Z,31.24
2017-05-14T02:21:09.546Z,31.34
2017-05-14T02:21:50.132Z,31.34
2017-05-14T02:22:30.700Z,31.24
2017-05-14T02:23:11.270Z,31.43
2017-05-14T02:23:51.850Z,31.43
2017-05-14T02:24:32.431Z,31.15
2017-05-14T02:25:13.003Z,31.63
2017-05-14T02:25:53.571Z,31.24
2017-05-14T02:26:34.156Z,31.34
2017-05-14T02:27:14.748Z,31.63
2017-05-14T02:27:55.342Z,31.53
2017-05-14T02:28:35.911Z,31.71
2017-05-14T02:29:16.480Z,31.71
2017-05-14T02:29:57.049Z,31.71
2017-05-14T02:30:37.616Z,31.61
2017-05-14T02:31:18.194Z,31.71
2017-05-14T02:31:58.775Z,31.42
2017-05-14T02:32:39.357Z,31.32
2017-05-14T02:33:19.956Z,31.51
2017-05-14T02:34:00.535Z,31.71
2017-05-14T02:34:41.156Z,31.71
2017-05-14T02:35:21.735Z,31.8
2017-05-14T02:36:02.319Z,31.51
2017-05-14T02:36:42.923Z,31.51
2017-05-14T02:37:23.496Z,31.51
2017-05-14T02:38:04.075Z,31.61
2017-05-14T02:38:44.658Z,31.51
2017-05-14T02:39:25.240Z,31.51
2017-05-14T02:40:05.839Z,31.51
2017-05-14T02:40:46.415Z,31.32
2017-05-14T02:41:26.998Z,31.42
2017-05-14T02:42:07.584Z,31.42
2017-05-14T02:42:48.172Z,31.13
2017-05-14T02:43:28.753Z,31.61
2017-05-14T02:44:09.331Z,31.13
2017-05-14T02:44:49.901Z,31.32
2017-05-14T02:45:30.474Z,31.32
2017-05-14T02:46:11.058Z,31.42
2017-05-14T02:46:51.648Z,31.32
2017-05-14T02:47:32.226Z,31.42
2017-05-14T02:48:12.812Z,31.42
2017-05-14T02:48:53.402Z,31.32
2017-05-14T02:49:33.988Z,31.42
2017-05-14T02:50:14.562Z,31.42
2017-05-14T02:50:55.129Z,31.32
2017-05-14T02:51:35.702Z,31.32
2017-05-14T02:52:16.270Z,31.23
2017-05-14T02:52:56.845Z,31.51
2017-05-14T02:53:37.420Z,31.61
2017-05-14T02:54:17.989Z,31.42
2017-05-14T02:54:58.562Z,31.71
2017-05-14T02:55:39.156Z,31.9
2017-05-14T02:56:19.734Z,31.8
2017-05-14T02:57:00.329Z,31.51
2017-05-14T02:57:40.937Z,31.61
2017-05-14T02:58:21.529Z,31.8
2017-05-14T02:59:02.143Z,31.9
2017-05-14T02:59:42.736Z,31.98
2017-05-14T03:00:23.321Z,31.88
2017-05-14T03:01:03.891Z,31.79
2017-05-14T03:01:44.503Z,31.69
2017-05-14T03:02:25.102Z,31.88
2017-05-14T03:03:05.690Z,31.88
2017-05-14T03:03:46.264Z,31.88
2017-05-14T03:04:26.851Z,31.79
2017-05-14T03:05:07.439Z,31.6
2017-05-14T03:05:48.011Z,31.6
2017-05-14T03:06:28.582Z,31.5
2017-05-14T03:07:09.157Z,31.69
2017-05-14T03:07:49.723Z,31.6
2017-05-14T03:08:30.297Z,31.88
2017-05-14T03:09:10.882Z,31.69
2017-05-14T03:09:51.453Z,31.6
2017-05-14T03:10:32.061Z,31.79
2017-05-14T03:11:12.636Z,31.69
2017-05-14T03:11:53.208Z,31.6
2017-05-14T03:12:33.775Z,31.6
2017-05-14T03:13:14.390Z,31.79
2017-05-14T03:13:54.972Z,31.79
2017-05-14T03:14:35.551Z,31.5
2017-05-14T03:15:16.129Z,31.6
2017-05-14T03:15:56.694Z,31.6
2017-05-14T03:16:37.280Z,31.69
2017-05-14T03:17:17.845Z,31.88
2017-05-14T03:17:58.416Z,31.5
2017-05-14T03:18:39.000Z,31.5
2017-05-14T03:19:19.596Z,31.69
2017-05-14T03:20:00.187Z,31.5
2017-05-14T03:20:40.755Z,31.31
2017-05-14T03:21:21.337Z,31.5
2017-05-14T03:22:01.909Z,31.6
2017-05-14T03:22:42.475Z,31.12
2017-05-14T03:23:23.047Z,31.21
2017-05-14T03:24:03.627Z,31.21
2017-05-14T03:24:44.198Z,31.4
2017-05-14T03:25:24.760Z,31.31
2017-05-14T03:26:05.336Z,31.31
2017-05-14T03:26:45.929Z,31.31
2017-05-14T03:27:26.541Z,31.31
2017-05-14T03:28:07.106Z,31.31
2017-05-14T03:28:47.686Z,31.4
2017-05-14T03:29:28.260Z,31.21
2017-05-14T03:30:08.821Z,31.21
2017-05-14T03:30:49.394Z,31.31
2017-05-14T03:31:29.965Z,31.5
2017-05-14T03:32:10.541Z,31.6
2017-05-14T03:32:51.116Z,31.5
2017-05-14T03:33:31.678Z,31.31
2017-05-14T03:34:12.299Z,31.12
2017-05-14T03:34:52.877Z,30.93
2017-05-14T03:35:33.432Z,31.4
2017-05-14T03:36:14.018Z,30.83
2017-05-14T03:36:54.575Z,30.93
2017-05-14T03:37:35.147Z,30.83
2017-05-14T03:38:15.728Z,31.12
2017-05-14T03:38:56.325Z,30.74
2017-05-14T03:39:36.941Z,31.21
2017-05-14T03:40:17.484Z,30.83
2017-05-14T03:40:58.072Z,31.12
2017-05-14T03:41:38.668Z,31.31
2017-05-14T03:42:19.251Z,31.12
2017-05-14T03:42:59.825Z,31.12
2017-05-14T03:43:40.393Z,31.31
2017-05-14T03:44:20.972Z,31.12
2017-05-14T03:45:01.547Z,30.93
2017-05-14T03:45:42.130Z,31.12
2017-05-14T03:46:22.701Z,31.21
2017-05-14T03:47:03.283Z,31.31
2017-05-14T03:47:43.859Z,31.12
2017-05-14T03:48:24.428Z,31.02
2017-05-14T03:49:05.019Z,31.21
2017-05-14T03:49:45.601Z,30.83
2017-05-14T03:50:26.170Z,31.21
2017-05-14T03:51:06.742Z,31.02
2017-05-14T03:51:47.330Z,31.12
2017-05-14T03:52:27.912Z,30.93
2017-05-14T03:53:08.561Z,31.12
2017-05-14T03:53:49.141Z,31.21
2017-05-14T03:54:29.714Z,30.83
2017-05-14T03:55:10.300Z,31.12
2017-05-14T03:55:50.870Z,31.12
2017-05-14T03:56:31.434Z,30.93
2017-05-14T03:57:12.008Z,31.12
2017-05-14T03:57:52.580Z,30.93
2017-05-14T03:58:33.148Z,31.12
2017-05-14T03:59:13.730Z,31.12
2017-05-14T03:59:54.332Z,31.02
2017-05-14T04:00:34.902Z,31.31
2017-05-14T04:01:15.482Z,31.21
2017-05-14T04:01:56.047Z,30.83
2017-05-14T04:02:36.657Z,30.93
2017-05-14T04:03:17.187Z,30.93
2017-05-14T04:03:57.756Z,30.83
2017-05-14T04:04:38.332Z,30.93
2017-05-14T04:05:18.899Z,30.83
2017-05-14T04:05:59.488Z,30.93
2017-05-14T04:06:40.053Z,30.74
2017-05-14T04:07:20.619Z,31.02
2017-05-14T04:08:01.194Z,30.93
2017-05-14T04:08:41.762Z,30.93
2017-05-14T04:09:22.330Z,30.93
2017-05-14T04:10:02.909Z,31.21
2017-05-14T04:10:43.480Z,31.6
2017-05-14T04:11:24.050Z,31.4
2017-05-14T04:12:04.616Z,31.5
2017-05-14T04:12:45.201Z,31.5
2017-05-14T04:13:25.784Z,31.4
2017-05-14T04:14:06.356Z,31.31
2017-05-14T04:14:46.923Z,31.29
2017-05-14T04:15:27.501Z,31.5
2017-05-14T04:16:08.076Z,31.5
2017-05-14T04:16:48.652Z,31.5
2017-05-14T04:17:29.234Z,31.6
2017-05-14T04:18:09.800Z,31.31
2017-05-14T04:18:50.371Z,30.83
2017-05-14T04:19:30.998Z,31.68
2017-05-14T04:20:11.602Z,31.31
2017-05-14T04:20:52.173Z,30.83
2017-05-14T04:21:32.742Z,30.74
2017-05-14T04:22:13.313Z,31.4
2017-05-14T04:22:53.882Z,31.21
2017-05-14T04:23:34.457Z,30.83
2017-05-14T04:24:15.042Z,31.5
2017-05-14T04:24:55.617Z,31.5
2017-05-14T04:25:36.191Z,31.48
2017-05-14T04:26:16.768Z,31.5
2017-05-14T04:26:57.352Z,31.39
2017-05-14T04:27:37.930Z,31.48
2017-05-14T04:28:18.519Z,31.29
2017-05-14T04:28:59.101Z,31.39
2017-05-14T04:29:39.704Z,31.58
2017-05-14T04:30:20.300Z,31.48
2017-05-14T04:31:00.865Z,31.39
2017-05-14T04:31:41.436Z,31.58
2017-05-14T04:32:22.000Z,31.48
2017-05-14T04:33:02.578Z,31.48
2017-05-14T04:33:43.151Z,31.29
2017-05-14T04:34:23.722Z,31.48
2017-05-14T04:35:04.292Z,30.91
2017-05-14T04:35:44.867Z,30.82
2017-05-14T04:36:25.433Z,31.29
2017-05-14T04:37:06.007Z,30.82
2017-05-14T04:37:46.590Z,31.2
2017-05-14T04:38:27.159Z,30.72
2017-05-14T04:39:07.731Z,31.2
2017-05-14T04:39:48.305Z,31.2
2017-05-14T04:40:28.894Z,31.1
2017-05-14T04:41:09.472Z,31.01
2017-05-14T04:41:50.043Z,31.1
2017-05-14T04:42:30.628Z,30.91
2017-05-14T04:43:11.210Z,30.82
2017-05-14T04:43:51.782Z,30.53
2017-05-14T04:44:32.377Z,30.91
2017-05-14T04:45:12.940Z,31.1
2017-05-14T04:45:53.520Z,30.72
2017-05-14T04:46:34.091Z,31.02
2017-05-14T04:47:14.665Z,31.12
2017-05-14T04:47:55.246Z,31.12
2017-05-14T04:48:35.813Z,30.83
2017-05-14T04:49:16.393Z,31.12
2017-05-14T04:49:56.966Z,30.83
2017-05-14T04:50:37.550Z,30.83
2017-05-14T04:51:18.104Z,30.83
2017-05-14T04:51:58.675Z,30.83
2017-05-14T04:52:39.271Z,30.83
2017-05-14T04:53:19.856Z,30.93
2017-05-14T04:54:00.423Z,30.64
2017-05-14T04:54:41.026Z,30.83
2017-05-14T04:55:21.598Z,30.83
2017-05-14T04:56:02.182Z,30.83
2017-05-14T04:56:42.750Z,30.83
2017-05-14T04:57:23.339Z,31.02
2017-05-14T04:58:03.919Z,30.83
2017-05-14T04:58:44.515Z,30.64
2017-05-14T04:59:25.093Z,30.55
2017-05-14T05:00:05.668Z,30.63
2017-05-14T05:00:46.296Z,30.64
2017-05-14T05:01:26.869Z,30.74
2017-05-14T05:02:07.467Z,30.64
2017-05-14T05:02:48.072Z,30.74
2017-05-14T05:03:28.665Z,30.74
2017-05-14T05:04:09.274Z,30.55
2017-05-14T05:04:49.877Z,30.55
2017-05-14T05:05:30.477Z,30.64
2017-05-14T05:06:11.043Z,30.64
2017-05-14T05:06:51.624Z,30.55
2017-05-14T05:07:32.195Z,30.55
2017-05-14T05:08:12.761Z,30.55
2017-05-14T05:08:53.333Z,30.55
2017-05-14T05:09:33.902Z,30.64
2017-05-14T05:10:14.494Z,30.55
2017-05-14T05:10:55.098Z,30.64
2017-05-14T05:11:35.690Z,30.55
2017-05-14T05:12:16.272Z,30.55
2017-05-14T05:12:56.871Z,30.74
2017-05-14T05:13:37.430Z,30.74
2017-05-14T05:14:18.017Z,30.55
2017-05-14T05:14:58.599Z,30.74
2017-05-14T05:15:39.179Z,30.35
2017-05-14T05:16:19.753Z,30.16
2017-05-14T05:17:00.324Z,30.35
2017-05-14T05:17:41.050Z,30.16
2017-05-14T05:18:21.623Z,30.35
2017-05-14T05:19:02.210Z,30.55
2017-05-14T05:19:42.780Z,30.45
2017-05-14T05:20:23.368Z,30.07
2017-05-14T05:21:03.984Z,30.16
2017-05-14T05:21:44.564Z,30.35
2017-05-14T05:22:25.135Z,30.45
2017-05-14T05:23:05.724Z,30.35
2017-05-14T05:23:46.287Z,30.16
2017-05-14T05:24:26.860Z,30.45
2017-05-14T05:25:07.430Z,30.45
2017-05-14T05:25:48.007Z,30.16
2017-05-14T05:26:28.577Z,30.26
2017-05-14T05:27:09.173Z,30.35
2017-05-14T05:27:49.754Z,30.35
2017-05-14T05:28:30.331Z,30.35
2017-05-14T05:29:10.943Z,30.26
2017-05-14T05:29:51.518Z,29.97
2017-05-14T05:30:32.086Z,30.35
2017-05-14T05:31:12.654Z,29.88
2017-05-14T05:31:53.224Z,29.88
2017-05-14T05:32:33.814Z,29.97
2017-05-14T05:33:14.395Z,29.78
2017-05-14T05:33:54.983Z,29.97
2017-05-14T05:34:35.555Z,30.07
2017-05-14T05:35:16.200Z,29.78
2017-05-14T05:35:56.770Z,29.97
2017-05-14T05:36:37.356Z,30.16
2017-05-14T05:37:17.939Z,30.07
2017-05-14T05:37:58.510Z,30.07
2017-05-14T05:38:39.091Z,30.07
2017-05-14T05:39:19.702Z,30.07
2017-05-14T05:40:00.291Z,30.07
2017-05-14T05:40:40.879Z,30.16
2017-05-14T05:41:21.518Z,29.88
2017-05-14T05:42:02.184Z,29.49
2017-05-14T05:42:42.759Z,29.3
2017-05-14T05:43:23.326Z,29.69
2017-05-14T05:44:03.894Z,29.49
2017-05-14T05:44:44.474Z,29.78
2017-05-14T05:45:25.047Z,29.49
2017-05-14T05:46:06.768Z,29.4
2017-05-14T05:46:48.378Z,29.69
2017-05-14T05:47:29.287Z,29.59
2017-05-14T05:48:09.863Z,29.59
2017-05-14T05:48:50.445Z,29.49
2017-05-14T05:49:31.008Z,29.3
2017-05-14T05:50:11.586Z,29.21
2017-05-14T05:50:52.164Z,29.21
2017-05-14T05:51:32.741Z,29.02
2017-05-14T05:52:13.316Z,29.32
2017-05-14T05:52:53.895Z,29.13
2017-05-14T05:53:34.507Z,29.32
2017-05-14T05:54:15.087Z,29.32
2017-05-14T05:54:55.682Z,29.32
2017-05-14T05:55:36.248Z,29.13
2017-05-14T05:56:16.830Z,29.22
2017-05-14T05:56:57.405Z,29.22
2017-05-14T05:57:37.977Z,29.32
2017-05-14T05:58:18.545Z,29.22
2017-05-14T05:58:59.129Z,29.22
2017-05-14T05:59:39.705Z,28.84
2017-05-14T06:00:20.272Z,28.75
2017-05-14T06:01:00.927Z,28.75
2017-05-14T06:01:41.500Z,29.41
2017-05-14T06:02:22.075Z,28.75
2017-05-14T06:03:02.654Z,29.03
2017-05-14T06:03:43.224Z,29.22
2017-05-14T06:04:23.803Z,29.13
2017-05-14T06:05:04.380Z,28.94
2017-05-14T06:05:44.951Z,29.03
2017-05-14T06:06:25.533Z,28.65
2017-05-14T06:07:06.104Z,28.65
2017-05-14T06:07:46.678Z,28.55
2017-05-14T06:08:27.258Z,28.75
2017-05-14T06:09:07.832Z,28.57
2017-05-14T06:09:48.395Z,28.57
2017-05-14T06:10:28.963Z,28.66
2017-05-14T06:11:09.594Z,28.57
2017-05-14T06:11:50.164Z,28.76
2017-05-14T06:12:30.745Z,28.57
2017-05-14T06:13:11.307Z,28.57
2017-05-14T06:13:51.887Z,28.47
2017-05-14T06:14:32.458Z,28.57
2017-05-14T06:15:13.035Z,28.66
2017-05-14T06:15:53.607Z,28.57
2017-05-14T06:16:34.194Z,28.57
2017-05-14T06:17:14.763Z,28.57
2017-05-14T06:17:55.348Z,28.47
2017-05-14T06:18:35.949Z,28.57
2017-05-14T06:19:16.529Z,28.47
2017-05-14T06:19:57.095Z,28.47
2017-05-14T06:20:37.685Z,28.57
2017-05-14T06:21:18.252Z,28.57
2017-05-14T06:21:58.819Z,28.49
2017-05-14T06:22:39.393Z,28.77
2017-05-14T06:23:19.969Z,28.57
2017-05-14T06:24:00.534Z,28.68
2017-05-14T06:24:41.115Z,28.77
2017-05-14T06:25:21.727Z,29.06
2017-05-14T06:26:02.359Z,29.35
2017-05-14T06:26:42.934Z,29.06
2017-05-14T06:27:23.503Z,29.06
2017-05-14T06:28:04.258Z,29.44
2017-05-14T06:28:44.824Z,29.16
2017-05-14T06:29:25.404Z,29.25
2017-05-14T06:30:05.994Z,29.54
2017-05-14T06:30:46.604Z,29.63
2017-05-14T06:31:27.478Z,29.54
2017-05-14T06:32:08.064Z,29.46
2017-05-14T06:32:48.655Z,30.22
2017-05-14T06:33:29.225Z,30.13
2017-05-14T06:34:09.807Z,29.94
2017-05-14T06:34:50.406Z,30.41
2017-05-14T06:35:31.106Z,30.32
2017-05-14T06:36:11.750Z,30.7
2017-05-14T06:36:52.324Z,30.99
2017-05-14T06:37:32.918Z,31.18
2017-05-14T06:38:13.494Z,31.09
2017-05-14T06:38:54.079Z,31.18
2017-05-14T06:39:34.641Z,31.87
2017-05-14T06:40:15.231Z,32.25
2017-05-14T06:40:55.812Z,32.73
2017-05-14T06:41:36.385Z,33.69
2017-05-14T06:42:17.421Z,34.36
2017-05-14T06:42:57.912Z,36.46
2017-05-14T06:43:38.501Z,38.59
2017-05-14T06:44:19.077Z,39.35
2017-05-14T06:44:59.693Z,41.07
2017-05-14T06:45:40.342Z,43.56
2017-05-14T06:46:20.950Z,44.33
2017-05-14T06:47:01.573Z,46.05
2017-05-14T06:47:42.155Z,47.2
2017-05-14T06:48:22.727Z,48.25
2017-05-14T06:49:03.380Z,51.42
2017-05-14T06:49:43.955Z,53.64
2017-05-14T06:50:24.531Z,54.19
2017-05-14T06:51:05.105Z,55.85
2017-05-14T06:51:45.686Z,57.38
2017-05-14T06:52:26.272Z,58.34
2017-05-14T06:53:06.859Z,59.87
2017-05-14T06:53:47.447Z,60.93
2017-05-14T06:54:28.034Z,63.6
2017-05-14T06:55:08.598Z,65.33
2017-05-14T06:55:49.185Z,66.38
2017-05-14T06:56:29.810Z,67.47
2017-05-14T06:57:10.369Z,68.3
2017-05-14T06:57:50.935Z,68.91
2017-05-14T06:58:31.515Z,70.44
2017-05-14T06:59:12.120Z,81.75
2017-05-14T06:59:52.707Z,81.08
2017-05-14T07:00:33.284Z,81.27
2017-05-14T07:01:13.859Z,83.48
2017-05-14T07:01:54.455Z,83
2017-05-14T07:02:35.037Z,83.91
2017-05-14T07:03:15.743Z,84.86
2017-05-14T07:03:56.320Z,85.72
2017-05-14T07:04:36.890Z,86.68
2017-05-14T07:05:17.481Z,89.94
2017-05-14T07:05:58.058Z,90.85
2017-05-14T07:06:38.641Z,92.77
2017-05-14T07:07:19.217Z,94.69
2017-05-14T07:07:59.793Z,95.07
2017-05-14T07:08:40.365Z,95.94
2017-05-14T07:09:20.941Z,96.22
2017-05-14T07:10:01.546Z,97.66
2017-05-14T07:10:42.127Z,98.62
2017-05-14T07:11:22.708Z,99.99
2017-05-14T07:12:03.303Z,99.99
2017-05-14T07:12:43.880Z,99.99
2017-05-14T07:13:24.468Z,99.99
2017-05-14T07:14:05.044Z,99.99
2017-05-14T07:14:45.625Z,99.99
2017-05-14T07:15:26.227Z,99.99
2017-05-14T07:16:06.835Z,99.99
2017-05-14T07:16:47.405Z,99.99
2017-05-14T07:17:27.983Z,99.99
2017-05-14T07:18:08.568Z,99.99
2017-05-14T07:18:49.146Z,99.99
2017-05-14T07:19:29.731Z,99.99
2017-05-14T07:20:10.362Z,99.99
2017-05-14T07:20:50.951Z,99.99
2017-05-14T07:21:31.547Z,99.99
2017-05-14T07:22:12.133Z,99.99
2017-05-14T07:22:52.721Z,99.99
2017-05-14T07:23:33.305Z,99.99
2017-05-14T07:24:13.897Z,99.99
2017-05-14T07:24:54.503Z,99.99
2017-05-14T07:25:35.098Z,99.99
2017-05-14T07:26:15.714Z,99.99
2017-05-14T07:26:56.298Z,99.99
2017-05-14T07:27:36.917Z,99.99
2017-05-14T07:28:17.505Z,99.99
2017-05-14T07:28:58.101Z,99.99
2017-05-14T07:29:38.674Z,99.99
2017-05-14T07:30:19.264Z,99.99
2017-05-14T07:30:59.845Z,99.99
2017-05-14T07:31:40.422Z,99.99
2017-05-14T07:32:21.000Z,99.99
2017-05-14T07:33:01.574Z,99.99
2017-05-14T07:33:42.150Z,99.99
2017-05-14T07:34:22.730Z,99.99
2017-05-14T07:35:03.297Z,99.99
2017-05-14T07:35:43.887Z,99.99
2017-05-14T07:36:24.469Z,99.99
2017-05-14T07:37:05.056Z,99.99
2017-05-14T07:37:45.626Z,99.99
2017-05-14T07:38:26.197Z,99.99
2017-05-14T07:39:06.782Z,99.99
2017-05-14T07:39:47.359Z,99.99
2017-05-14T07:40:27.953Z,99.99
2017-05-14T07:41:08.515Z,99.99
2017-05-14T07:41:49.097Z,99.99
2017-05-14T07:42:29.686Z,99.99
2017-05-14T07:43:10.274Z,99.99
2017-05-14T07:43:50.852Z,99.99
2017-05-14T07:44:31.436Z,99.99
2017-05-14T07:45:12.015Z,99.99
2017-05-14T07:45:52.607Z,99.99
2017-05-14T07:46:33.183Z,99.99
2017-05-14T07:47:13.769Z,99.99
2017-05-14T07:47:54.359Z,99.99
2017-05-14T07:48:34.965Z,99.99
2017-05-14T07:49:15.540Z,99.99
2017-05-14T07:49:56.128Z,99.99
2017-05-14T07:50:36.707Z,99.99
2017-05-14T07:51:17.295Z,99.99
2017-05-14T07:51:57.872Z,99.99
2017-05-14T07:52:38.456Z,99.99
2017-05-14T07:53:19.037Z,99.99
2017-05-14T07:53:59.626Z,99.99
2017-05-14T07:54:40.200Z,99.99
2017-05-14T07:55:20.785Z,99.99
2017-05-14T07:56:01.367Z,99.99
2017-05-14T07:56:41.943Z,99.99
2017-05-14T07:57:22.524Z,99.99
2017-05-14T07:58:03.096Z,99.99
2017-05-14T07:58:43.707Z,99.99
2017-05-14T07:59:24.284Z,99.99
2017-05-14T08:00:04.866Z,99.99
2017-05-14T08:00:45.441Z,99.99
2017-05-14T08:01:26.026Z,99.99
2017-05-14T08:02:06.602Z,99.99
2017-05-14T08:02:47.198Z,99.99
2017-05-14T08:03:27.788Z,99.99
2017-05-14T08:04:08.374Z,99.99
2017-05-14T08:04:48.951Z,99.99
2017-05-14T08:05:29.525Z,99.99
2017-05-14T08:06:10.105Z,99.99
2017-05-14T08:06:50.690Z,99.99
2017-05-14T08:07:31.261Z,99.99
2017-05-14T08:08:11.840Z,99.99
2017-05-14T08:08:52.421Z,99.99
2017-05-14T08:09:33.005Z,99.99
2017-05-14T08:10:13.575Z,99.99
2017-05-14T08:10:54.158Z,99.99
2017-05-14T08:11:34.743Z,99.99
2017-05-14T08:12:15.318Z,99.99
2017-05-14T08:12:55.889Z,99.99
2017-05-14T08:13:36.476Z,99.99
2017-05-14T08:14:17.082Z,99.99
2017-05-14T08:14:57.657Z,99.99
2017-05-14T08:15:38.226Z,99.99
2017-05-14T08:16:18.805Z,99.99
2017-05-14T08:16:59.379Z,99.99
2017-05-14T08:17:39.951Z,99.99
2017-05-14T08:18:20.527Z,99.99
2017-05-14T08:19:01.108Z,99.99
2017-05-14T08:19:41.696Z,99.99
2017-05-14T08:20:22.278Z,99.99
2017-05-14T08:21:02.848Z,99.99
2017-05-14T08:21:43.433Z,99.99
2017-05-14T08:22:24.004Z,99.99
2017-05-14T08:23:04.611Z,99.99
2017-05-14T08:23:45.196Z,99.99
2017-05-14T08:24:25.776Z,99.99
2017-05-14T08:25:06.357Z,99.99
2017-05-14T08:25:46.939Z,99.99
2017-05-14T08:26:27.521Z,99.99
2017-05-14T08:27:08.102Z,99.99
2017-05-14T08:27:48.690Z,99.99
2017-05-14T08:28:29.274Z,99.99
2017-05-14T08:29:09.849Z,99.99
2017-05-14T08:29:50.421Z,99.99
2017-05-14T08:30:31.021Z,99.99
2017-05-14T08:31:11.611Z,99.99
2017-05-14T08:31:52.187Z,99.99
2017-05-14T08:32:32.769Z,99.99
2017-05-14T08:33:13.359Z,99.99
2017-05-14T08:33:53.978Z,99.99
2017-05-14T08:34:34.565Z,99.99
2017-05-14T08:35:15.157Z,99.99
2017-05-14T08:35:55.735Z,99.99
2017-05-14T08:36:36.323Z,99.99
2017-05-14T08:37:16.913Z,99.99
2017-05-14T08:37:57.487Z,99.99
2017-05-14T08:38:38.088Z,99.99
2017-05-14T08:39:18.666Z,99.99
2017-05-14T08:39:59.244Z,99.99
2017-05-14T08:40:39.819Z,99.99
2017-05-14T08:41:20.399Z,99.99
2017-05-14T08:42:01.002Z,99.99
2017-05-14T08:42:41.585Z,99.99
2017-05-14T08:43:22.176Z,99.99
2017-05-14T08:44:02.749Z,99.99
2017-05-14T08:44:43.338Z,99.99